createdAt,value
2022-12-04T00:01:28.030Z,96322.91
2022-12-04T00:03:54.430Z,96316.97
2022-12-04T00:06:20.902Z,96309.41
2022-12-04T00:08:47.283Z,96318.31
2022-12-04T00:11:13.688Z,96307.53
2022-12-04T00:13:40.081Z,96308.81
2022-12-04T00:16:06.498Z,96309.91
2022-12-04T00:18:32.951Z,96308.25
2022-12-04T00:20:59.340Z,96295.03
2022-12-04T00:23:25.755Z,96295.25
2022-12-04T00:25:52.159Z,96295.84
2022-12-04T00:28:18.653Z,96290.16
2022-12-04T00:30:45.093Z,96286.06
2022-12-04T00:33:11.473Z,96286.06
2022-12-04T00:35:37.869Z,96296.66
2022-12-04T00:38:04.229Z,96297.47
2022-12-04T00:40:30.647Z,96282.66
2022-12-04T00:42:57.064Z,96285.34
2022-12-04T00:45:23.544Z,96276.69
2022-12-04T00:47:50.102Z,96281.19
2022-12-04T00:50:16.495Z,96282.72
2022-12-04T00:52:42.911Z,96281.69
2022-12-04T00:55:09.310Z,96282.28
2022-12-04T00:57:35.712Z,96288.25
2022-12-04T01:00:02.094Z,96293.88
2022-12-04T01:02:28.457Z,96296.56
2022-12-04T01:04:54.844Z,96284.97
2022-12-04T01:07:21.298Z,96288.25
2022-12-04T01:09:47.700Z,96288.25
2022-12-04T01:12:20.380Z,96273.91
2022-12-04T01:14:47.217Z,96269.31
2022-12-04T01:17:13.619Z,96267.72
2022-12-04T01:19:40.049Z,96273.09
2022-12-04T01:22:06.420Z,96287.09
2022-12-04T01:24:32.885Z,96290.66
2022-12-04T01:26:59.287Z,96269.41
2022-12-04T01:29:25.658Z,96261.81
2022-12-04T01:31:52.150Z,96266.41
2022-12-04T01:34:18.543Z,96280.28
2022-12-04T01:36:45.110Z,96281.69
2022-12-04T01:39:11.478Z,96272.50
2022-12-04T01:41:37.951Z,96268.00
2022-12-04T01:44:04.355Z,96263.38
2022-12-04T01:46:30.838Z,96271.47
2022-12-04T01:48:58.161Z,96267.72
2022-12-04T01:51:24.517Z,96259.81
2022-12-04T01:53:50.895Z,96263.91
2022-12-04T01:56:17.337Z,96272.50
2022-12-04T01:58:43.701Z,96263.91
2022-12-04T02:01:10.199Z,96266.31
2022-12-04T02:03:36.638Z,96266.31
2022-12-04T02:06:03.021Z,96275.50
2022-12-04T02:08:29.442Z,96272.59
2022-12-04T02:10:55.941Z,96261.22
2022-12-04T02:13:22.342Z,96256.13
2022-12-04T02:15:48.759Z,96258.31
2022-12-04T02:18:15.201Z,96277.97
2022-12-04T02:20:41.595Z,96280.88
2022-12-04T02:23:08.016Z,96271.22
2022-12-04T02:25:34.386Z,96272.81
2022-12-04T02:28:00.807Z,96270.91
2022-12-04T02:30:27.250Z,96264.72
2022-12-04T02:32:53.763Z,96266.91
2022-12-04T02:35:20.180Z,96276.59
2022-12-04T02:37:46.571Z,96279.06
2022-12-04T02:40:12.987Z,96271.47
2022-12-04T02:42:39.528Z,96266.91
2022-12-04T02:45:06.036Z,96274.47
2022-12-04T02:47:32.419Z,96268.28
2022-12-04T02:49:59.042Z,96266.69
2022-12-04T02:52:25.531Z,96269.41
2022-12-04T02:54:51.938Z,96278.28
2022-12-04T02:57:18.527Z,96283.66
2022-12-04T02:59:44.934Z,96279.38
2022-12-04T03:02:11.549Z,96286.06
2022-12-04T03:04:37.987Z,96283.09
2022-12-04T03:07:04.388Z,96289.38
2022-12-04T03:09:30.977Z,96289.84
2022-12-04T03:11:57.376Z,96283.66
2022-12-04T03:14:23.810Z,96277.19
2022-12-04T03:16:50.277Z,96291.47
2022-12-04T03:19:16.693Z,96296.34
2022-12-04T03:21:43.126Z,96286.59
2022-12-04T03:24:09.528Z,96291.47
2022-12-04T03:26:35.947Z,96286.84
2022-12-04T03:29:02.353Z,96277.19
2022-12-04T03:31:28.753Z,96279.88
2022-12-04T03:33:55.147Z,96287.16
2022-12-04T03:36:21.535Z,96284.56
2022-12-04T03:38:47.961Z,96278.38
2022-12-04T03:41:14.315Z,96279.78
2022-12-04T03:43:40.735Z,96294.03
2022-12-04T03:46:07.200Z,96283.19
2022-12-04T03:48:33.620Z,96279.97
2022-12-04T03:50:59.999Z,96284.78
2022-12-04T03:53:26.388Z,96282.88
2022-12-04T03:55:52.794Z,96281.78
2022-12-04T03:58:19.163Z,96281.47
2022-12-04T04:00:45.549Z,96272.66
2022-12-04T04:03:11.953Z,96277.78
2022-12-04T04:05:38.396Z,96293.66
2022-12-04T04:08:04.901Z,96293.66
2022-12-04T04:10:31.357Z,96290.34
2022-12-04T04:12:57.762Z,96292.88
2022-12-04T04:15:25.645Z,96278.84
2022-12-04T04:17:52.003Z,96293.13
2022-12-04T04:20:18.453Z,96291.75
2022-12-04T04:22:44.856Z,96298.25
2022-12-04T04:25:11.246Z,96302.06
2022-12-04T04:27:37.634Z,96307.63
2022-12-04T04:30:04.011Z,96303.03
2022-12-04T04:32:30.409Z,96312.53
2022-12-04T04:34:56.788Z,96309.53
2022-12-04T04:37:23.173Z,96304.66
2022-12-04T04:39:49.599Z,96307.44
2022-12-04T04:42:16.167Z,96313.41
2022-12-04T04:44:42.580Z,96320.22
2022-12-04T04:47:08.977Z,96315.00
2022-12-04T04:49:35.397Z,96313.41
2022-12-04T04:52:01.812Z,96317.41
2022-12-04T04:54:28.281Z,96323.31
2022-12-04T04:56:54.678Z,96307.44
2022-12-04T04:59:21.029Z,96310.94
2022-12-04T05:01:47.515Z,96312.31
2022-12-04T05:04:14.005Z,96313.09
2022-12-04T05:06:40.496Z,96314.69
2022-12-04T05:09:07.073Z,96309.03
2022-12-04T05:11:33.473Z,96312.00
2022-12-04T05:13:59.822Z,96309.03
2022-12-04T05:16:26.259Z,96319.81
2022-12-04T05:18:52.805Z,96308.25
2022-12-04T05:21:19.229Z,96314.44
2022-12-04T05:23:45.660Z,96317.13
2022-12-04T05:26:12.048Z,96313.03
2022-12-04T05:28:38.497Z,96307.94
2022-12-04T05:31:04.949Z,96309.22
2022-12-04T05:33:31.387Z,96316.44
2022-12-04T05:35:57.781Z,96318.56
2022-12-04T05:38:24.258Z,96318.03
2022-12-04T05:40:50.619Z,96312.16
2022-12-04T05:43:17.016Z,96312.44
2022-12-04T05:45:43.509Z,96312.38
2022-12-04T05:48:09.955Z,96312.63
2022-12-04T05:50:36.357Z,96309.94
2022-12-04T05:53:02.772Z,96308.06
2022-12-04T05:55:29.277Z,96301.84
2022-12-04T05:57:55.713Z,96295.09
2022-12-04T06:00:22.182Z,96305.56
2022-12-04T06:02:48.656Z,96300.09
2022-12-04T06:05:15.026Z,96308.69
2022-12-04T06:07:41.504Z,96307.59
2022-12-04T06:10:08.122Z,96308.97
2022-12-04T06:12:34.513Z,96309.78
2022-12-04T06:15:00.946Z,96311.41
2022-12-04T06:17:27.457Z,96308.09
2022-12-04T06:19:54.365Z,96307.59
2022-12-04T06:22:20.938Z,96309.50
2022-12-04T06:24:47.350Z,96307.59
2022-12-04T06:27:29.286Z,96311.91
2022-12-04T06:29:56.269Z,96322.75
2022-12-04T06:32:22.866Z,96326.97
2022-12-04T06:34:49.262Z,96335.06
2022-12-04T06:37:15.715Z,96329.75
2022-12-04T06:39:42.209Z,96334.56
2022-12-04T06:42:08.625Z,96336.97
2022-12-04T06:44:35.056Z,96337.97
2022-12-04T06:47:01.495Z,96344.97
2022-12-04T06:49:27.906Z,96342.06
2022-12-04T06:51:54.346Z,96332.91
2022-12-04T06:54:20.723Z,96336.38
2022-12-04T06:56:47.207Z,96341.47
2022-12-04T06:59:13.708Z,96336.09
2022-12-04T07:01:40.156Z,96333.38
2022-12-04T07:04:06.573Z,96331.50
2022-12-04T07:06:33.019Z,96328.56
2022-12-04T07:08:59.441Z,96327.50
2022-12-04T07:11:25.883Z,96330.56
2022-12-04T07:13:52.246Z,96337.28
2022-12-04T07:16:18.706Z,96340.06
2022-12-04T07:18:45.114Z,96335.16
2022-12-04T07:21:11.516Z,96333.97
2022-12-04T07:23:37.898Z,96339.56
2022-12-04T07:26:04.336Z,96337.19
2022-12-04T07:28:31.889Z,96337.03
2022-12-04T07:30:58.405Z,96326.16
2022-12-04T07:33:24.843Z,96331.75
2022-12-04T07:35:51.347Z,96332.53
2022-12-04T07:38:17.752Z,96322.06
2022-12-04T07:40:44.225Z,96328.03
2022-12-04T07:43:10.660Z,96326.97
2022-12-04T07:45:37.541Z,96330.03
2022-12-04T07:48:03.961Z,96330.03
2022-12-04T07:50:30.424Z,96331.13
2022-12-04T07:52:56.821Z,96336.31
2022-12-04T07:55:23.523Z,96340.31
2022-12-04T07:57:49.979Z,96335.28
2022-12-04T08:00:16.378Z,96334.97
2022-12-04T08:02:42.757Z,96339.56
2022-12-04T08:05:09.139Z,96337.75
2022-12-04T08:07:35.572Z,96340.88
2022-12-04T08:10:02.001Z,96332.53
2022-12-04T08:12:28.422Z,96340.38
2022-12-04T08:14:54.796Z,96336.09
2022-12-04T08:17:21.523Z,96338.16
2022-12-04T08:19:47.952Z,96340.97
2022-12-04T08:22:14.405Z,96336.09
2022-12-04T08:24:40.832Z,96341.69
2022-12-04T08:27:07.217Z,96345.19
2022-12-04T08:29:33.637Z,96348.56
2022-12-04T08:32:00.070Z,96343.69
2022-12-04T08:34:26.470Z,96345.34
2022-12-04T08:36:52.846Z,96343.06
2022-12-04T08:39:19.332Z,96331.00
2022-12-04T08:41:45.742Z,96337.97
2022-12-04T08:44:12.124Z,96332.78
2022-12-04T08:46:38.685Z,96325.88
2022-12-04T08:49:05.142Z,96335.59
2022-12-04T08:51:31.536Z,96336.09
2022-12-04T08:53:57.961Z,96347.75
2022-12-04T08:56:24.458Z,96339.09
2022-12-04T08:58:50.855Z,96333.38
2022-12-04T09:01:17.260Z,96338.28
2022-12-04T09:03:43.706Z,96328.88
2022-12-04T09:06:10.116Z,96336.31
2022-12-04T09:08:36.461Z,96330.19
2022-12-04T09:11:02.851Z,96324.50
2022-12-04T09:13:29.265Z,96325.06
2022-12-04T09:15:55.689Z,96326.66
2022-12-04T09:18:22.125Z,96323.41
2022-12-04T09:20:48.525Z,96317.69
2022-12-04T09:23:14.887Z,96321.50
2022-12-04T09:25:41.293Z,96329.28
2022-12-04T09:28:07.725Z,96329.75
2022-12-04T09:30:34.151Z,96332.72
2022-12-04T09:33:00.537Z,96330.53
2022-12-04T09:35:26.934Z,96337.84
2022-12-04T09:37:53.313Z,96333.25
2022-12-04T09:40:19.668Z,96349.22
2022-12-04T09:42:46.032Z,96340.81
2022-12-04T09:45:12.407Z,96339.56
2022-12-04T09:47:38.895Z,96341.19
2022-12-04T09:50:05.322Z,96328.78
2022-12-04T09:52:31.754Z,96332.59
2022-12-04T09:54:58.189Z,96337.69
2022-12-04T09:57:24.568Z,96341.97
2022-12-04T09:59:50.937Z,96338.41
2022-12-04T10:02:17.368Z,96339.00
2022-12-04T10:04:43.998Z,96346.72
2022-12-04T10:07:10.370Z,96343.31
2022-12-04T10:09:36.759Z,96344.31
2022-12-04T10:12:03.156Z,96344.31
2022-12-04T10:14:29.575Z,96346.50
2022-12-04T10:16:56.033Z,96353.00
2022-12-04T10:19:22.448Z,96354.66
2022-12-04T10:21:48.859Z,96348.16
2022-12-04T10:24:15.252Z,96349.13
2022-12-04T10:26:41.662Z,96341.69
2022-12-04T10:29:08.055Z,96337.09
2022-12-04T10:31:34.604Z,96338.41
2022-12-04T10:34:01.019Z,96340.38
2022-12-04T10:36:27.458Z,96335.16
2022-12-04T10:38:53.879Z,96338.16
2022-12-04T10:41:20.298Z,96339.00
2022-12-04T10:43:46.712Z,96340.03
2022-12-04T10:46:13.159Z,96340.38
2022-12-04T10:48:39.553Z,96353.66
2022-12-04T10:51:05.925Z,96353.06
2022-12-04T10:53:32.346Z,96351.41
2022-12-04T10:55:58.765Z,96354.91
2022-12-04T10:58:25.252Z,96345.19
2022-12-04T11:00:51.630Z,96353.81
2022-12-04T11:03:18.049Z,96348.09
2022-12-04T11:05:44.503Z,96348.09
2022-12-04T11:08:12.540Z,96351.13
2022-12-04T11:10:41.975Z,96339.28
2022-12-04T11:13:08.400Z,96337.09
2022-12-04T11:15:34.833Z,96338.72
2022-12-04T11:18:01.230Z,96336.53
2022-12-04T11:20:27.695Z,96335.94
2022-12-04T11:22:54.114Z,96327.94
2022-12-04T11:25:20.502Z,96327.63
2022-12-04T11:27:47.046Z,96334.94
2022-12-04T11:30:13.533Z,96326.03
2022-12-04T11:32:39.928Z,96309.84
2022-12-04T11:35:06.371Z,96311.81
2022-12-04T11:37:32.752Z,96308.16
2022-12-04T11:39:59.312Z,96314.06
2022-12-04T11:42:25.827Z,96320.63
2022-12-04T11:44:52.202Z,96321.66
2022-12-04T11:47:18.626Z,96311.56
2022-12-04T11:49:45.049Z,96298.38
2022-12-04T11:52:11.472Z,96295.97
2022-12-04T11:54:37.837Z,96276.06
2022-12-04T11:57:04.213Z,96267.09
2022-12-04T11:59:30.583Z,96256.63
2022-12-04T12:01:58.720Z,96246.53
2022-12-04T12:04:25.320Z,96251.94
2022-12-04T12:06:51.701Z,96252.03
2022-12-04T12:09:18.101Z,96251.03
2022-12-04T12:11:44.521Z,96253.41
2022-12-04T12:14:11.020Z,96257.22
2022-12-04T12:16:37.459Z,96272.00
2022-12-04T12:19:03.894Z,96267.84
2022-12-04T12:21:30.327Z,96270.75
2022-12-04T12:23:56.708Z,96264.00
2022-12-04T12:26:23.159Z,96254.72
2022-12-04T12:28:49.597Z,96246.41
2022-12-04T12:31:16.109Z,96240.50
2022-12-04T12:33:42.576Z,96241.72
2022-12-04T12:36:09.009Z,96256.81
2022-12-04T12:38:35.405Z,96247.94
2022-12-04T12:41:01.812Z,96251.00
2022-12-04T12:43:28.207Z,96259.09
2022-12-04T12:45:54.692Z,96254.00
2022-12-04T12:48:21.127Z,96258.59
2022-12-04T12:50:54.720Z,96267.53
2022-12-04T12:53:29.756Z,96262.66
2022-12-04T12:55:56.202Z,96271.56
2022-12-04T12:58:22.624Z,96281.66
2022-12-04T13:00:49.181Z,96286.13
2022-12-04T13:03:15.654Z,96293.31
2022-12-04T13:05:42.007Z,96298.19
2022-12-04T13:08:08.423Z,96294.38
2022-12-04T13:10:34.958Z,96288.19
2022-12-04T13:13:01.443Z,96286.13
2022-12-04T13:15:27.979Z,96288.19
2022-12-04T13:17:54.387Z,96282.22
2022-12-04T13:20:20.759Z,96288.72
2022-12-04T13:22:47.135Z,96281.53
2022-12-04T13:25:13.613Z,96276.44
2022-12-04T13:27:40.011Z,96263.56
2022-12-04T13:30:06.434Z,96258.53
2022-12-04T13:32:32.777Z,96252.06
2022-12-04T13:34:59.179Z,96239.38
2022-12-04T13:37:25.580Z,96241.56
2022-12-04T13:39:51.970Z,96238.59
2022-12-04T13:42:18.314Z,96228.88
2022-12-04T13:44:44.700Z,96228.59
2022-12-04T13:47:11.050Z,96223.19
2022-12-04T13:49:37.483Z,96222.78
2022-12-04T13:52:03.890Z,96215.78
2022-12-04T13:54:30.258Z,96221.88
2022-12-04T13:56:56.652Z,96230.97
2022-12-04T13:59:22.996Z,96240.44
2022-12-04T14:01:49.460Z,96233.47
2022-12-04T14:04:15.892Z,96232.56
2022-12-04T14:06:42.262Z,96211.88
2022-12-04T14:09:08.661Z,96234.47
2022-12-04T14:11:35.097Z,96236.69
2022-12-04T14:14:06.588Z,96230.78
2022-12-04T14:16:34.465Z,96222.41
2022-12-04T14:19:00.853Z,96221.88
2022-12-04T14:21:27.285Z,96228.06
2022-12-04T14:23:53.626Z,96232.66
2022-12-04T14:26:20.037Z,96234.78
2022-12-04T14:28:46.458Z,96227.88
2022-12-04T14:31:13.013Z,96229.56
2022-12-04T14:33:39.419Z,96230.50
2022-12-04T14:36:05.756Z,96234.78
2022-12-04T14:38:32.162Z,96256.44
2022-12-04T14:40:58.544Z,96258.34
2022-12-04T14:43:24.921Z,96259.63
2022-12-04T14:45:51.432Z,96251.84
2022-12-04T14:48:17.818Z,96259.63
2022-12-04T14:50:44.463Z,96260.81
2022-12-04T14:53:10.901Z,96263.75
2022-12-04T14:55:37.311Z,96263.75
2022-12-04T14:58:03.784Z,96261.13
2022-12-04T15:00:30.215Z,96273.72
2022-12-04T15:02:56.627Z,96270.81
2022-12-04T15:05:23.006Z,96265.91
2022-12-04T15:07:49.570Z,96264.31
2022-12-04T15:10:15.985Z,96277.00
2022-12-04T15:12:42.350Z,96282.63
2022-12-04T15:15:08.772Z,96284.31
2022-12-04T15:17:35.222Z,96287.50
2022-12-04T15:20:01.742Z,96289.19
2022-12-04T15:22:28.109Z,96284.69
2022-12-04T15:24:54.960Z,96268.91
2022-12-04T15:27:21.693Z,96268.22
2022-12-04T15:29:48.115Z,96260.91
2022-12-04T15:32:14.617Z,96258.53
2022-12-04T15:34:40.991Z,96270.91
2022-12-04T15:37:07.364Z,96278.19
2022-12-04T15:39:34.164Z,96270.31
2022-12-04T15:42:00.557Z,96262.50
2022-12-04T15:44:26.923Z,96254.50
2022-12-04T15:46:53.377Z,96241.03
2022-12-04T15:49:19.849Z,96245.53
2022-12-04T15:51:46.397Z,96247.94
2022-12-04T15:54:12.822Z,96247.94
2022-12-04T15:56:39.218Z,96258.22
2022-12-04T15:59:05.584Z,96273.28
2022-12-04T16:01:32.026Z,96276.50
2022-12-04T16:03:58.481Z,96288.97
2022-12-04T16:06:24.877Z,96296.56
2022-12-04T16:08:51.215Z,96303.84
2022-12-04T16:11:17.572Z,96312.44
2022-12-04T16:13:43.964Z,96311.34
2022-12-04T16:16:10.390Z,96315.22
2022-12-04T16:18:36.804Z,96308.72
2022-12-04T16:21:03.340Z,96317.03
2022-12-04T16:23:29.792Z,96330.31
2022-12-04T16:25:56.182Z,96331.09
2022-12-04T16:28:22.663Z,96322.78
2022-12-04T16:30:49.155Z,96326.81
2022-12-04T16:33:15.788Z,96320.94
2022-12-04T16:35:42.264Z,96340.28
2022-12-04T16:38:08.677Z,96356.16
2022-12-04T16:40:35.174Z,96370.44
2022-12-04T16:43:01.646Z,96374.25
2022-12-04T16:45:28.158Z,96371.06
2022-12-04T16:47:54.684Z,96364.47
2022-12-04T16:50:21.100Z,96374.53
2022-12-04T16:52:47.521Z,96384.31
2022-12-04T16:55:14.131Z,96378.84
2022-12-04T16:57:40.563Z,96386.94
2022-12-04T17:00:06.991Z,96405.50
2022-12-04T17:02:33.401Z,96403.91
2022-12-04T17:05:00.155Z,96413.09
2022-12-04T17:07:26.799Z,96386.13
2022-12-04T17:09:53.169Z,96396.59
2022-12-04T17:12:19.580Z,96399.09
2022-12-04T17:14:45.992Z,96408.78
2022-12-04T17:17:12.377Z,96404.78
2022-12-04T17:19:38.808Z,96398.00
2022-12-04T17:22:05.313Z,96399.44
2022-12-04T17:24:31.740Z,96406.66
2022-12-04T17:26:58.164Z,96405.88
2022-12-04T17:29:24.676Z,96409.00
2022-12-04T17:31:51.107Z,96416.59
2022-12-04T17:34:17.581Z,96419.56
2022-12-04T17:36:43.996Z,96425.78
2022-12-04T17:39:10.428Z,96421.75
2022-12-04T17:41:36.797Z,96423.38
2022-12-04T17:44:03.249Z,96419.34
2022-12-04T17:46:29.699Z,96425.53
2022-12-04T17:48:56.078Z,96420.94
2022-12-04T17:51:22.561Z,96419.56
2022-12-04T17:53:48.995Z,96424.44
2022-12-04T17:56:15.361Z,96421.47
2022-12-04T17:58:41.794Z,96411.56
2022-12-04T18:01:08.199Z,96399.91
2022-12-04T18:03:34.665Z,96400.72
2022-12-04T18:06:01.234Z,96411.19
2022-12-04T18:08:27.628Z,96415.78
2022-12-04T18:10:54.036Z,96424.38
2022-12-04T18:13:20.538Z,96413.09
2022-12-04T18:15:46.945Z,96421.97
2022-12-04T18:18:13.348Z,96432.25
2022-12-04T18:20:39.823Z,96436.63
2022-12-04T18:23:06.233Z,96432.53
2022-12-04T18:25:32.759Z,96426.34
2022-12-04T18:27:59.186Z,96427.94
2022-12-04T18:30:25.592Z,96436.03
2022-12-04T18:32:51.975Z,96450.09
2022-12-04T18:35:18.514Z,96455.78
2022-12-04T18:37:44.862Z,96448.44
2022-12-04T18:40:11.336Z,96444.41
2022-12-04T18:42:37.832Z,96443.03
2022-12-04T18:45:04.221Z,96439.81
2022-12-04T18:47:30.641Z,96433.94
2022-12-04T18:49:57.354Z,96444.13
2022-12-04T18:52:24.015Z,96461.91
2022-12-04T18:54:50.425Z,96472.19
2022-12-04T18:57:16.941Z,96475.41
2022-12-04T18:59:43.313Z,96476.47
2022-12-04T19:02:09.719Z,96489.69
2022-12-04T19:04:36.165Z,96491.84
2022-12-04T19:07:02.532Z,96509.66
2022-12-04T19:10:02.489Z,96518.25
2022-12-04T19:12:15.385Z,96512.34
2022-12-04T19:14:41.815Z,96515.31
2022-12-04T19:17:08.277Z,96525.22
2022-12-04T19:19:34.691Z,96537.19
2022-12-04T19:22:01.210Z,96537.69
2022-12-04T19:24:27.642Z,96531.22
2022-12-04T19:26:54.111Z,96539.31
2022-12-04T19:29:20.570Z,96539.31
2022-12-04T19:31:47.073Z,96542.22
2022-12-04T19:34:13.573Z,96547.66
2022-12-04T19:36:40.002Z,96545.84
2022-12-04T19:39:06.403Z,96538.47
2022-12-04T19:41:32.751Z,96540.97
2022-12-04T19:43:59.137Z,96535.56
2022-12-04T19:46:25.651Z,96525.91
2022-12-04T19:48:52.159Z,96525.00
2022-12-04T19:51:18.578Z,96522.41
2022-12-04T19:53:45.156Z,96518.31
2022-12-04T19:56:11.648Z,96518.31
2022-12-04T19:58:38.035Z,96533.91
2022-12-04T20:01:04.490Z,96536.81
2022-12-04T20:03:31.096Z,96551.91
2022-12-04T20:05:57.684Z,96549.78
2022-12-04T20:08:24.113Z,96554.38
2022-12-04T20:10:50.489Z,96565.44
2022-12-04T20:13:16.959Z,96570.16
2022-12-04T20:15:43.467Z,96570.09
2022-12-04T20:18:09.844Z,96576.59
2022-12-04T20:20:36.209Z,96589.94
2022-12-04T20:23:02.615Z,96596.66
2022-12-04T20:25:29.158Z,96600.38
2022-12-04T20:27:55.537Z,96610.31
2022-12-04T20:30:22.039Z,96615.13
2022-12-04T20:32:48.538Z,96611.03
2022-12-04T20:35:14.891Z,96594.81
2022-12-04T20:37:41.258Z,96590.25
2022-12-04T20:40:07.702Z,96606.44
2022-12-04T20:42:34.107Z,96602.16
2022-12-04T20:45:00.496Z,96609.16
2022-12-04T20:47:26.890Z,96608.34
2022-12-04T20:49:53.300Z,96619.44
2022-12-04T20:52:20.041Z,96625.56
2022-12-04T20:54:46.490Z,96625.91
2022-12-04T20:57:12.941Z,96629.72
2022-12-04T20:59:39.339Z,96635.84
2022-12-04T21:02:05.783Z,96645.84
2022-12-04T21:04:32.201Z,96639.34
2022-12-04T21:06:58.685Z,96645.78
2022-12-04T21:09:25.142Z,96635.84
2022-12-04T21:11:51.592Z,96635.78
2022-12-04T21:14:17.964Z,96633.38
2022-12-04T21:16:44.652Z,96634.41
2022-12-04T21:19:11.163Z,96629.31
2022-12-04T21:21:37.690Z,96643.09
2022-12-04T21:24:04.197Z,96655.19
2022-12-04T21:26:30.557Z,96657.88
2022-12-04T21:28:56.967Z,96655.75
2022-12-04T21:31:23.552Z,96650.34
2022-12-04T21:33:49.982Z,96667.34
2022-12-04T21:36:16.382Z,96671.13
2022-12-04T21:38:42.804Z,96669.75
2022-12-04T21:41:09.270Z,96675.16
2022-12-04T21:43:35.757Z,96666.25
2022-12-04T21:46:08.860Z,96673.25
2022-12-04T21:48:35.554Z,96662.97
2022-12-04T21:51:02.062Z,96671.38
2022-12-04T21:53:28.494Z,96666.22
2022-12-04T21:55:55.040Z,96655.69
2022-12-04T21:58:21.424Z,96665.66
2022-12-04T22:00:47.940Z,96681.59
2022-12-04T22:03:14.407Z,96676.19
2022-12-04T22:05:40.877Z,96683.47
2022-12-04T22:08:07.375Z,96687.25
2022-12-04T22:10:33.907Z,96697.50
2022-12-04T22:13:00.294Z,96703.97
2022-12-04T22:15:26.733Z,96701.28
2022-12-04T22:17:53.150Z,96704.25
2022-12-04T22:20:19.531Z,96698.03
2022-12-04T22:22:45.970Z,96698.03
2022-12-04T22:25:12.518Z,96701.28
2022-12-04T22:27:38.915Z,96710.41
2022-12-04T22:30:05.938Z,96712.06
2022-12-04T22:32:32.579Z,96708.31
2022-12-04T22:34:59.012Z,96709.94
2022-12-04T22:37:25.437Z,96708.84
2022-12-04T22:39:51.835Z,96703.41
2022-12-04T22:42:18.250Z,96701.28
2022-12-04T22:44:44.618Z,96719.41
2022-12-04T22:47:11.159Z,96715.91
2022-12-04T22:49:37.536Z,96717.72
2022-12-04T22:52:03.914Z,96739.09
2022-12-04T22:54:30.407Z,96728.31
2022-12-04T22:56:56.814Z,96726.72
2022-12-04T22:59:23.285Z,96726.91
2022-12-04T23:01:49.723Z,96717.47
2022-12-04T23:04:16.270Z,96726.91
2022-12-04T23:06:42.660Z,96726.38
2022-12-04T23:09:09.054Z,96730.19
2022-12-04T23:11:35.580Z,96725.59
2022-12-04T23:14:02.015Z,96722.09
2022-12-04T23:16:28.445Z,96720.72
2022-12-04T23:18:54.990Z,96725.31
2022-12-04T23:21:21.408Z,96732.09
2022-12-04T23:23:47.881Z,96726.72
2022-12-04T23:26:14.324Z,96735.31
2022-12-04T23:28:40.753Z,96734.25
2022-12-04T23:31:07.224Z,96732.66
2022-12-04T23:33:33.684Z,96730.47
2022-12-04T23:36:00.284Z,96730.75
2022-12-04T23:38:26.735Z,96727.50
2022-12-04T23:40:53.161Z,96735.59
2022-12-04T23:43:19.567Z,96731.81
2022-12-04T23:45:45.990Z,96724.00
2022-12-04T23:48:12.409Z,96733.47
2022-12-04T23:50:38.827Z,96741.03
2022-12-04T23:53:05.226Z,96742.94
2022-12-04T23:55:34.491Z,96740.50
2022-12-04T23:58:01.205Z,96746.16
